Time;durP1;ratioP1;P1;durP2;ratioP2;P2;SDS_P1;SDS_P2;PMS_P1;PMS_P2;Temp;Humidity;BMP_temperature;BMP_pressure;BME280_temperature;BME280_humidity;BME280_pressure;Samples;Min_cycle;Max_cycle;Signal;HPM_P1;HPM_P2
2023/08/04 00:00:14;;;;;;;13.60;4.93;;;;;;;17.24;100.00;91787.03;4793938;30;20111;-80
2023/08/04 00:02:40;;;;;;;11.30;3.92;;;;;;;17.17;100.00;91780.84;4793959;30;20310;-79
2023/08/04 00:05:07;;;;;;;9.48;2.95;;;;;;;17.13;100.00;91793.19;4793999;29;20031;-79
2023/08/04 00:07:33;;;;;;;7.97;3.55;;;;;;;16.99;100.00;91796.28;4793801;30;20050;-80
2023/08/04 00:09:59;;;;;;;5.97;2.75;;;;;;;16.96;100.00;91807.56;4793274;29;20047;-80
2023/08/04 00:12:25;;;;;;;8.73;2.85;;;;;;;16.82;100.00;91794.75;4792980;30;20048;-79
2023/08/04 00:14:50;;;;;;;5.75;2.95;;;;;;;16.77;100.00;91793.09;4794936;29;20043;-79
2023/08/04 00:17:16;;;;;;;6.90;2.28;;;;;;;16.69;100.00;91780.81;4792898;29;20045;-79
2023/08/04 00:19:42;;;;;;;5.38;2.47;;;;;;;16.58;100.00;91777.91;4792295;29;20051;-79
2023/08/04 00:22:08;;;;;;;7.00;2.53;;;;;;;16.54;100.00;91776.28;4794719;29;20069;-79
2023/08/04 00:24:34;;;;;;;4.30;1.90;;;;;;;16.46;100.00;91785.94;4794160;30;20039;-79
2023/08/04 00:27:00;;;;;;;4.95;2.05;;;;;;;16.46;100.00;91783.28;4792497;30;20051;-79
2023/08/04 00:29:26;;;;;;;5.65;2.40;;;;;;;16.37;100.00;91770.22;4784755;30;20173;-79
2023/08/04 00:31:52;;;;;;;6.22;2.28;;;;;;;16.33;100.00;91776.53;4792889;30;20132;-79
2023/08/04 00:34:18;;;;;;;4.15;2.20;;;;;;;16.31;100.00;91765.53;4791996;30;20065;-79
2023/08/04 00:36:49;;;;;;;4.13;2.20;;;;;;;16.28;100.00;91764.34;4794309;29;20448;-79
2023/08/04 00:39:15;;;;;;;4.72;2.20;;;;;;;16.26;100.00;91757.84;4792088;29;20572;-79
2023/08/04 00:41:42;;;;;;;4.07;1.95;;;;;;;16.23;100.00;91759.28;4791353;30;20129;-79
2023/08/04 00:44:08;;;;;;;5.20;2.22;;;;;;;16.22;100.00;91753.25;4793520;29;20032;-79
2023/08/04 00:46:35;;;;;;;6.15;2.10;;;;;;;16.21;100.00;91750.94;4792612;30;20110;-79
2023/08/04 00:49:01;;;;;;;4.28;2.00;;;;;;;16.23;100.00;91748.72;4793738;29;20041;-78
2023/08/04 00:51:27;;;;;;;5.63;2.50;;;;;;;16.23;100.00;91754.00;4792303;29;20089;-78
2023/08/04 00:53:53;;;;;;;8.80;2.40;;;;;;;16.21;100.00;91751.72;4792615;29;20039;-79
2023/08/04 00:56:19;;;;;;;7.25;2.40;;;;;;;16.15;100.00;91757.59;4790966;29;20050;-79
2023/08/04 00:58:45;;;;;;;9.10;2.78;;;;;;;16.19;100.00;91753.16;4792945;30;20068;-79
2023/08/04 01:01:11;;;;;;;4.85;2.10;;;;;;;16.19;100.00;91755.81;4789995;29;20063;-78
2023/08/04 01:03:40;;;;;;;7.97;2.58;;;;;;;16.17;100.00;91763.31;4790914;29;20047;-78
2023/08/04 01:06:15;;;;;;;4.68;2.22;;;;;;;16.15;100.00;91757.59;4791989;29;20051;-78
2023/08/04 01:09:09;;;;;;;7.75;2.40;;;;;;;16.14;100.00;91766.59;4790371;30;20077;-78
2023/08/04 01:11:42;;;;;;;5.25;2.03;;;;;;;16.18;100.00;91756.91;4802195;29;20043;-78
2023/08/04 01:14:10;;;;;;;5.68;2.00;;;;;;;16.27;100.00;91768.06;4790871;29;20069;-78
2023/08/04 01:16:36;;;;;;;7.85;2.30;;;;;;;16.33;100.00;91765.97;4792688;29;20035;-78
2023/08/04 01:19:02;;;;;;;4.55;2.05;;;;;;;16.35;100.00;91767.16;4791752;30;20527;-78
2023/08/04 01:21:27;;;;;;;5.95;2.05;;;;;;;16.36;100.00;91765.28;4790897;30;20111;-78
2023/08/04 01:23:54;;;;;;;5.97;2.15;;;;;;;16.30;100.00;91761.34;4792216;29;20031;-78
2023/08/04 01:26:21;;;;;;;4.10;2.00;;;;;;;16.27;100.00;91770.72;4792591;29;20059;-78
2023/08/04 01:28:49;;;;;;;4.25;1.90;;;;;;;16.24;100.00;91766.13;4791820;30;20058;-78
2023/08/04 01:31:14;;;;;;;4.40;1.88;;;;;;;16.24;100.00;91779.31;4791278;30;20398;-78
2023/08/04 01:33:41;;;;;;;8.02;1.73;;;;;;;16.27;100.00;91770.72;4790390;29;20042;-78
2023/08/04 01:36:07;;;;;;;4.15;1.80;;;;;;;16.33;100.00;91768.59;4792278;29;20043;-79
2023/08/04 01:38:33;;;;;;;4.88;2.08;;;;;;;16.34;100.00;91770.88;4792627;29;20047;-78
2023/08/04 01:40:59;;;;;;;3.40;1.65;;;;;;;16.38;100.00;91776.28;4791489;30;20045;-78
2023/08/04 01:43:25;;;;;;;4.00;1.63;;;;;;;16.41;100.00;91768.47;4791312;30;20095;-78
2023/08/04 01:45:50;;;;;;;6.55;1.77;;;;;;;16.39;100.00;91767.22;4792146;30;20122;-78
2023/08/04 01:48:17;;;;;;;6.60;2.00;;;;;;;16.39;100.00;91762.75;4791093;29;20031;-78
2023/08/04 01:50:42;;;;;;;3.33;1.70;;;;;;;16.43;100.00;91779.41;4776339;30;20051;-78
2023/08/04 01:53:08;;;;;;;3.38;1.40;;;;;;;16.48;100.00;91772.34;4790035;29;20031;-78
2023/08/04 01:55:34;;;;;;;3.33;1.63;;;;;;;16.52;100.00;91762.66;4791107;29;20072;-78
2023/08/04 01:57:59;;;;;;;5.15;1.75;;;;;;;16.55;100.00;91765.41;4790908;29;20034;-77
2023/08/04 02:00:25;;;;;;;3.90;1.67;;;;;;;16.62;100.00;91775.38;4791144;29;20039;-78
2023/08/04 02:02:50;;;;;;;4.57;1.60;;;;;;;16.71;100.00;91773.34;4782338;30;20043;-78
2023/08/04 02:05:17;;;;;;;3.97;1.90;;;;;;;16.71;100.00;91773.34;4793661;29;20035;-79
2023/08/04 02:07:43;;;;;;;4.07;1.80;;;;;;;16.70;100.00;91777.06;4790062;30;20051;-78
2023/08/04 02:10:09;;;;;;;4.38;1.67;;;;;;;16.70;100.00;91769.13;4789425;29;20051;-78
2023/08/04 02:12:34;;;;;;;3.28;1.48;;;;;;;16.67;100.00;91772.47;4789954;29;20047;-78
2023/08/04 02:15:00;;;;;;;3.20;1.50;;;;;;;16.65;100.00;91774.69;4790629;29;20410;-78
2023/08/04 02:17:26;;;;;;;3.63;1.73;;;;;;;16.64;100.00;91768.63;4790765;30;20043;-78
2023/08/04 02:19:51;;;;;;;5.65;1.65;;;;;;;16.63;100.00;91768.97;4790367;29;20054;-79
2023/08/04 02:22:17;;;;;;;5.30;1.73;;;;;;;16.63;100.00;91774.25;4790130;30;20511;-78
2023/08/04 02:24:42;;;;;;;3.63;1.75;;;;;;;16.62;100.00;91764.81;4789100;29;20054;-78
2023/08/04 02:27:08;;;;;;;3.35;1.65;;;;;;;16.61;100.00;91766.66;4791664;29;20039;-78
2023/08/04 02:29:33;;;;;;;11.63;2.08;;;;;;;16.62;100.00;91770.84;4790263;30;20043;-78
2023/08/04 02:31:59;;;;;;;3.35;1.52;;;;;;;16.63;100.00;91769.72;4791835;30;20043;-79
2023/08/04 02:34:24;;;;;;;7.28;1.80;;;;;;;16.64;100.00;91766.00;4790587;30;20058;-79
2023/08/04 02:36:50;;;;;;;3.88;1.50;;;;;;;16.64;100.00;91765.22;4791564;29;20059;-78
2023/08/04 02:39:16;;;;;;;4.72;1.35;;;;;;;16.67;100.00;91763.78;4791204;29;20494;-78
2023/08/04 02:41:41;;;;;;;3.35;1.50;;;;;;;16.77;100.00;91761.38;4790189;30;20502;-78
2023/08/04 02:44:07;;;;;;;3.22;1.65;;;;;;;16.77;100.00;91763.25;4790886;29;20045;-78
2023/08/04 02:46:32;;;;;;;3.72;1.52;;;;;;;16.73;100.00;91765.84;4791044;29;20090;-79
2023/08/04 02:48:58;;;;;;;6.85;1.58;;;;;;;16.74;100.00;91767.34;4790348;29;20509;-79
2023/08/04 02:51:23;;;;;;;3.08;1.60;;;;;;;16.70;100.00;91761.22;4790145;29;20049;-78
2023/08/04 02:53:49;;;;;;;2.88;1.60;;;;;;;16.67;100.00;91767.19;4774736;30;20039;-79
2023/08/04 02:56:17;;;;;;;2.67;1.35;;;;;;;16.62;100.00;91765.56;4789033;29;20142;-78
2023/08/04 02:58:44;;;;;;;2.83;1.50;;;;;;;16.59;100.00;91773.38;4791263;30;20079;-78
2023/08/04 03:01:11;;;;;;;4.13;1.45;;;;;;;16.58;100.00;91774.50;4790623;30;20035;-78
2023/08/04 03:03:37;;;;;;;3.42;1.40;;;;;;;16.55;100.00;91761.97;4789002;29;20043;-78
2023/08/04 03:06:03;;;;;;;3.38;1.50;;;;;;;16.55;100.00;91769.88;4789857;29;20078;-78
2023/08/04 03:08:31;;;;;;;3.08;1.38;;;;;;;16.51;100.00;91771.69;4790172;29;20043;-78
2023/08/04 03:10:57;;;;;;;5.40;1.50;;;;;;;16.54;100.00;91778.94;4790618;29;20050;-78
2023/08/04 03:13:23;;;;;;;5.13;1.55;;;;;;;16.54;100.00;91765.72;4790004;29;20051;-79
2023/08/04 03:15:59;;;;;;;2.85;1.30;;;;;;;16.54;100.00;91766.50;4790097;29;20039;-78
2023/08/04 03:18:25;;;;;;;3.63;1.60;;;;;;;16.59;100.00;91770.75;4791600;29;20035;-78
2023/08/04 03:20:51;;;;;;;4.13;1.50;;;;;;;16.62;100.00;91772.72;4790540;29;20456;-78
2023/08/04 03:23:17;;;;;;;4.18;1.60;;;;;;;16.63;100.00;91772.38;4790989;30;20052;-78
2023/08/04 03:25:43;;;;;;;3.42;1.48;;;;;;;16.63;100.00;91774.25;4788987;29;20055;-79
2023/08/04 03:28:08;;;;;;;3.35;1.50;;;;;;;16.61;100.00;91769.31;4789595;29;20032;-78
2023/08/04 03:30:34;;;;;;;3.92;1.73;;;;;;;16.61;100.00;91768.53;4790295;30;20058;-79
2023/08/04 03:32:59;;;;;;;4.65;1.50;;;;;;;16.61;100.00;91764.00;4790768;30;20055;-78
2023/08/04 03:35:25;;;;;;;2.88;1.50;;;;;;;16.60;100.00;91772.31;4790040;29;20043;-78
2023/08/04 03:37:52;;;;;;;3.40;1.60;;;;;;;16.58;100.00;91764.72;4789479;29;20043;-78
2023/08/04 03:40:17;;;;;;;6.05;1.50;;;;;;;16.57;100.00;91768.47;4789893;29;20100;-78
2023/08/04 03:42:43;;;;;;;3.10;1.50;;;;;;;16.58;100.00;91779.78;4790230;29;20502;-78
2023/08/04 03:45:09;;;;;;;3.33;1.40;;;;;;;16.58;100.00;91774.50;4790538;29;20103;-78
2023/08/04 03:47:34;;;;;;;2.95;1.40;;;;;;;16.67;100.00;91769.06;4789573;30;20055;-78
2023/08/04 03:50:01;;;;;;;3.78;1.50;;;;;;;16.65;100.00;91780.72;4789975;29;20035;-78
2023/08/04 03:52:27;;;;;;;2.72;1.30;;;;;;;16.66;100.00;91778.84;4789201;29;20035;-78
2023/08/04 03:54:53;;;;;;;2.47;1.33;;;;;;;16.66;100.00;91786.78;4789307;29;20090;-78
2023/08/04 03:57:18;;;;;;;3.88;1.50;;;;;;;16.74;100.00;91782.44;4789851;29;20103;-78
2023/08/04 03:59:44;;;;;;;3.13;1.40;;;;;;;16.72;100.00;91782.78;4790603;29;20119;-78
2023/08/04 04:02:09;;;;;;;4.95;1.45;;;;;;;16.72;100.00;91782.78;4790028;29;20465;-78
2023/08/04 04:04:35;;;;;;;3.30;1.42;;;;;;;16.74;100.00;91788.50;4774129;30;20039;-78
2023/08/04 04:07:00;;;;;;;3.63;1.35;;;;;;;16.77;100.00;91787.81;4789617;29;20491;-78
2023/08/04 04:09:26;;;;;;;3.75;1.23;;;;;;;16.84;100.00;91782.75;4789407;29;20046;-79
2023/08/04 04:11:51;;;;;;;3.05;1.30;;;;;;;16.90;100.00;91793.03;4789359;29;20066;-78
2023/08/04 04:14:17;;;;;;;2.67;1.50;;;;;;;16.88;100.00;91792.63;4789780;29;20039;-78
2023/08/04 04:16:43;;;;;;;3.25;1.25;;;;;;;16.85;100.00;91794.84;4789413;29;20047;-78
2023/08/04 04:19:08;;;;;;;2.30;1.30;;;;;;;16.83;100.00;91794.41;4773743;30;20040;-78
2023/08/04 04:21:34;;;;;;;5.00;1.50;;;;;;;16.82;100.00;91789.47;4789033;30;20463;-78
2023/08/04 04:23:59;;;;;;;4.45;1.27;;;;;;;16.82;100.00;91792.88;4790090;29;20089;-79
2023/08/04 04:26:25;;;;;;;3.25;1.30;;;;;;;16.81;100.00;91786.03;4791895;29;20039;-78
2023/08/04 04:28:51;;;;;;;3.53;1.80;;;;;;;16.81;100.00;91785.28;4791670;29;20043;-78
2023/08/04 04:31:16;;;;;;;3.00;1.30;;;;;;;16.82;100.00;91789.47;4792214;30;20395;-78
2023/08/04 04:33:42;;;;;;;2.83;1.48;;;;;;;16.82;100.00;91778.91;4792608;29;20058;-78
2023/08/04 04:36:07;;;;;;;3.63;1.40;;;;;;;16.87;100.00;91786.56;4793702;29;20027;-78
2023/08/04 04:38:33;;;;;;;2.42;1.40;;;;;;;16.87;100.00;91778.63;4792477;29;20096;-79
2023/08/04 04:41:03;;;;;;;2.53;1.30;;;;;;;16.85;100.00;91772.94;4791769;30;20642;-79
2023/08/04 04:43:30;;;;;;;3.35;1.50;;;;;;;16.86;100.00;91779.72;4790358;30;20039;-78
2023/08/04 04:45:56;;;;;;;2.60;1.25;;;;;;;16.82;100.00;91779.66;4792489;29;20111;-78
2023/08/04 04:48:23;;;;;;;3.55;1.60;;;;;;;16.89;100.00;91780.91;4793757;30;20403;-78
2023/08/04 04:50:52;;;;;;;3.38;1.20;;;;;;;16.92;99.65;91774.97;4793260;29;20069;-78
2023/08/04 04:53:17;;;;;;;2.22;1.20;;;;;;;16.95;98.74;91782.22;4792998;29;20051;-78
2023/08/04 04:55:43;;;;;;;3.00;1.30;;;;;;;17.06;94.72;91785.88;4792712;29;20379;-77
2023/08/04 04:58:09;;;;;;;2.53;1.30;;;;;;;17.09;97.06;91787.06;4790407;29;20122;-78
2023/08/04 05:00:35;;;;;;;2.63;1.20;;;;;;;17.38;93.23;91783.97;4788510;29;20038;-78
2023/08/04 05:03:04;;;;;;;2.05;1.20;;;;;;;17.50;93.49;91791.00;4790195;29;20058;-77
2023/08/04 05:05:29;;;;;;;2.45;1.25;;;;;;;17.35;95.19;91786.53;4786842;29;20461;-78
2023/08/04 05:07:55;;;;;;;1.95;1.10;;;;;;;17.35;94.56;91779.34;4784346;30;20039;-78
2023/08/04 05:10:21;;;;;;;4.57;1.35;;;;;;;17.30;95.15;91787.56;4788538;29;20069;-77
2023/08/04 05:12:46;;;;;;;3.95;1.30;;;;;;;17.32;92.66;91787.22;4788463;29;20051;-77
2023/08/04 05:15:12;;;;;;;2.63;1.20;;;;;;;17.32;92.96;91784.56;4788972;30;20270;-78
2023/08/04 05:17:38;;;;;;;2.47;1.35;;;;;;;17.36;91.16;91785.41;4789376;29;20047;-78
2023/08/04 05:20:04;;;;;;;2.47;1.13;;;;;;;17.45;90.51;91780.69;4787823;29;20064;-78
2023/08/04 05:22:30;;;;;;;3.78;1.13;;;;;;;17.39;92.65;91790.78;4782038;30;20109;-78
2023/08/04 05:24:56;;;;;;;2.60;1.20;;;;;;;17.39;93.08;91803.25;4787455;29;20445;-79
2023/08/04 05:27:21;;;;;;;2.63;1.20;;;;;;;17.38;92.23;91802.47;4786286;29;20039;-79
2023/08/04 05:29:47;;;;;;;2.35;1.17;;;;;;;17.35;97.25;91811.09;4787783;29;20069;-80
2023/08/04 05:32:13;;;;;;;3.30;1.35;;;;;;;17.35;94.44;91816.38;4789189;29;20039;-81
2023/08/04 05:34:38;;;;;;;2.92;1.50;;;;;;;17.31;96.45;91815.53;4773001;30;20118;-81
2023/08/04 05:37:04;;;;;;;4.75;1.25;;;;;;;17.31;96.12;91820.06;4787334;29;20094;-82
2023/08/04 05:39:32;;;;;;;3.50;1.20;;;;;;;17.27;95.18;91820.00;4790093;29;20101;-82
2023/08/04 05:41:58;;;;;;;3.70;1.67;;;;;;;17.26;95.68;91824.50;4789194;29;20431;-82
2023/08/04 05:44:23;;;;;;;2.38;1.30;;;;;;;17.23;97.06;91827.06;4788535;29;20061;-82
2023/08/04 05:46:49;;;;;;;3.72;1.30;;;;;;;17.18;97.78;91822.81;4789280;30;20047;-81
2023/08/04 05:49:14;;;;;;;3.75;1.40;;;;;;;17.15;99.63;91826.13;4784693;30;20043;-81
2023/08/04 05:51:40;;;;;;;2.47;1.23;;;;;;;17.15;99.20;91828.75;4787518;29;20043;-81
2023/08/04 05:54:06;;;;;;;5.07;1.20;;;;;;;17.12;97.84;91826.81;4787468;29;20115;-82
2023/08/04 05:56:31;;;;;;;5.25;1.45;;;;;;;17.10;98.30;91834.31;4789674;29;20039;-82
2023/08/04 05:58:57;;;;;;;3.03;1.42;;;;;;;17.11;94.80;91825.25;4788522;30;20679;-83
2023/08/04 06:01:23;;;;;;;3.08;1.38;;;;;;;17.15;98.35;91818.19;4790535;29;20051;-82
2023/08/04 06:03:49;;;;;;;4.03;1.42;;;;;;;17.20;100.00;91815.31;4789099;29;20047;-82
2023/08/04 06:06:14;;;;;;;7.30;1.38;;;;;;;17.23;97.63;91825.19;4789524;29;20047;-81
2023/08/04 06:08:40;;;;;;;2.60;1.20;;;;;;;17.27;95.57;91826.03;4788387;29;20063;-82
2023/08/04 06:11:05;;;;;;;1.13;0.80;;;;;;;17.30;95.44;91831.75;4789882;30;20454;-84
2023/08/04 06:13:31;;;;;;;2.70;1.08;;;;;;;17.56;93.75;91837.28;4791092;29;20048;-85
2023/08/04 06:15:57;;;;;;;2.15;0.98;;;;;;;17.98;91.04;91846.47;4791732;29;20043;-84
2023/08/04 06:18:22;;;;;;;3.33;1.27;;;;;;;18.03;90.59;91844.31;4791036;29;20049;-83
2023/08/04 06:20:50;;;;;;;4.93;1.50;;;;;;;18.26;88.17;91840.97;4790632;30;20047;-83
2023/08/04 06:23:16;;;;;;;2.88;0.95;;;;;;;18.50;86.47;91845.22;4777149;30;20037;-84
2023/08/04 06:25:41;;;;;;;4.72;1.33;;;;;;;18.55;87.50;91841.53;4792071;29;20039;-82
2023/08/04 06:28:07;;;;;;;1.95;1.10;;;;;;;18.65;88.53;91848.91;4791368;29;20050;-84
2023/08/04 06:30:32;;;;;;;3.50;0.95;;;;;;;18.72;87.58;91857.00;4792085;29;20035;-84
2023/08/04 06:32:58;;;;;;;1.45;0.93;;;;;;;18.81;82.30;91854.16;4791552;29;20145;-83
2023/08/04 06:35:24;;;;;;;2.30;1.05;;;;;;;18.78;84.83;91847.66;4790511;29;20067;-83
2023/08/04 06:37:49;;;;;;;2.38;1.20;;;;;;;19.12;84.92;91853.94;4792350;29;20092;-84
2023/08/04 06:40:15;;;;;;;1.77;1.00;;;;;;;19.48;82.97;91848.44;4776151;29;20043;-84
2023/08/04 06:42:40;;;;;;;1.58;1.00;;;;;;;19.86;81.36;91841.38;4774924;30;20110;-83
2023/08/04 06:45:07;;;;;;;2.20;1.00;;;;;;;19.94;81.98;91843.03;4780955;29;20039;-83
2023/08/04 06:47:32;;;;;;;1.75;0.90;;;;;;;19.83;80.47;91847.41;4798895;29;20120;-80
2023/08/04 06:49:58;;;;;;;1.83;0.95;;;;;;;19.67;82.05;91840.34;4791285;29;20039;-80
2023/08/04 06:52:24;;;;;;;2.20;1.10;;;;;;;19.53;81.75;91845.47;4790453;29;20085;-81
2023/08/04 06:54:49;;;;;;;3.08;0.98;;;;;;;19.43;78.80;91830.13;4789172;29;20031;-81
2023/08/04 06:57:15;;;;;;;1.88;0.93;;;;;;;19.40;80.70;91838.81;4788007;30;20047;-82
2023/08/04 06:59:41;;;;;;;3.60;1.02;;;;;;;19.35;78.14;91830.03;4789865;30;20099;-82
2023/08/04 07:02:06;;;;;;;2.47;1.08;;;;;;;19.23;79.30;91832.09;4790579;29;20039;-80
2023/08/04 07:04:32;;;;;;;5.25;1.50;;;;;;;19.12;77.76;91842.56;4790818;29;20509;-81
2023/08/04 07:06:57;;;;;;;4.30;0.93;;;;;;;19.20;78.75;91851.38;4789943;29;20043;-80
2023/08/04 07:09:23;;;;;;;1.80;1.00;;;;;;;19.09;78.01;91854.66;4803336;29;20418;-81
2023/08/04 07:11:49;;;;;;;3.00;0.98;;;;;;;19.13;78.01;91855.44;4789853;29;20062;-81
2023/08/04 07:14:15;;;;;;;1.98;1.02;;;;;;;19.24;80.25;91844.25;4789682;29;20069;-80
2023/08/04 07:16:41;;;;;;;2.15;1.10;;;;;;;19.56;79.51;91834.13;4789224;29;20074;-81
2023/08/04 07:19:06;;;;;;;2.30;1.00;;;;;;;19.99;78.56;91837.38;4788873;30;20090;-80
2023/08/04 07:21:32;;;;;;;1.50;1.00;;;;;;;20.08;75.61;91831.81;4788938;29;20054;-81
2023/08/04 07:23:57;;;;;;;4.47;1.42;;;;;;;20.37;75.89;91844.31;4785389;30;20128;-80
2023/08/04 07:26:23;;;;;;;2.38;0.80;;;;;;;20.37;72.56;91832.91;4781866;30;20031;-81
2023/08/04 07:28:49;;;;;;;1.80;1.02;;;;;;;20.42;77.49;91835.25;4797583;29;20040;-80
2023/08/04 07:31:14;;;;;;;1.30;0.85;;;;;;;20.45;77.87;91839.84;4789145;30;20075;-81
2023/08/04 07:33:40;;;;;;;1.58;0.80;;;;;;;20.46;75.24;91833.41;4786754;29;20050;-81
2023/08/04 07:36:05;;;;;;;2.60;1.10;;;;;;;20.54;74.32;91836.91;4787494;29;20051;-80
2023/08/04 07:38:31;;;;;;;1.42;0.82;;;;;;;20.50;75.05;91836.88;4785631;29;20027;-81
2023/08/04 07:40:58;;;;;;;2.67;1.08;;;;;;;20.50;73.93;91836.88;4785231;30;20043;-80
2023/08/04 07:43:25;;;;;;;2.13;1.00;;;;;;;20.61;72.34;91836.25;4785584;29;20495;-81
2023/08/04 07:45:51;;;;;;;0.90;0.70;;;;;;;20.62;74.71;91832.47;4781633;29;20047;-81
2023/08/04 07:48:17;;;;;;;1.60;0.90;;;;;;;20.65;75.26;91831.72;4786204;30;20533;-80
2023/08/04 07:50:44;;;;;;;1.10;0.90;;;;;;;20.96;73.27;91831.28;4782223;30;20043;-80
2023/08/04 07:53:10;;;;;;;2.08;0.85;;;;;;;21.49;75.37;91826.81;4787755;29;20067;-82
2023/08/04 07:55:36;;;;;;;1.65;0.90;;;;;;;21.97;72.32;91830.13;4786787;29;20120;-82
2023/08/04 07:58:09;;;;;;;3.47;1.30;;;;;;;22.11;80.66;91832.13;4773490;30;20047;-81
2023/08/04 08:00:35;;;;;;;2.10;0.85;;;;;;;22.04;76.22;91827.53;4789344;29;20069;-83
2023/08/04 08:03:01;;;;;;;4.47;1.00;;;;;;;22.06;68.54;91824.47;4788303;29;20039;-81
2023/08/04 08:05:28;;;;;;;1.20;0.80;;;;;;;21.96;69.59;91823.28;4787195;30;20095;-81
2023/08/04 08:07:53;;;;;;;1.38;0.88;;;;;;;22.00;68.79;91821.41;4786996;29;20050;-81
2023/08/04 08:10:19;;;;;;;2.00;0.85;;;;;;;22.03;69.83;91811.91;4789246;30;20035;-82
2023/08/04 08:12:45;;;;;;;1.17;0.80;;;;;;;22.13;65.53;91816.50;4787164;30;20059;-82
2023/08/04 08:15:11;;;;;;;1.38;0.80;;;;;;;22.34;67.54;91817.78;4789081;30;20050;-82
2023/08/04 08:17:37;;;;;;;1.98;0.90;;;;;;;22.69;63.34;91822.44;4790084;29;20055;-82
2023/08/04 08:20:05;;;;;;;2.25;1.20;;;;;;;23.01;62.29;91816.44;4788955;30;20476;-82
2023/08/04 08:22:30;;;;;;;4.20;1.20;;;;;;;22.79;72.28;91820.97;4783652;30;20055;-81
2023/08/04 08:24:56;;;;;;;3.63;1.48;;;;;;;22.70;76.71;91820.53;4793121;29;20055;-81
2023/08/04 08:27:22;;;;;;;2.72;1.10;;;;;;;22.32;72.90;91814.72;4789541;29;20043;-80
2023/08/04 08:29:52;;;;;;;2.30;1.13;;;;;;;22.15;71.89;91808.91;4790524;29;20046;-81
2023/08/04 08:32:17;;;;;;;2.05;1.00;;;;;;;22.66;68.28;91807.22;4790521;30;20450;-78
2023/08/04 08:34:44;;;;;;;2.80;1.00;;;;;;;22.97;67.61;91800.41;4789134;30;20138;-81
2023/08/04 08:37:09;;;;;;;1.27;0.85;;;;;;;23.30;57.10;91801.19;4787222;29;20074;-81
2023/08/04 08:39:35;;;;;;;0.88;0.68;;;;;;;23.56;58.52;91818.75;4803055;29;20491;-80
2023/08/04 08:42:01;;;;;;;1.92;0.90;;;;;;;23.73;60.20;91819.09;4788241;29;20247;-81
2023/08/04 08:44:26;;;;;;;1.65;1.00;;;;;;;23.59;57.55;91838.59;4790779;29;20031;-79
2023/08/04 08:46:52;;;;;;;2.03;1.20;;;;;;;23.96;66.99;91840.88;4784216;29;22026;-80
2023/08/04 08:49:23;;;;;;;3.17;1.10;;;;;;;23.78;55.56;91842.81;4787782;30;20150;-80
2023/08/04 08:51:51;;;;;;;4.15;1.30;;;;;;;23.37;65.41;91846.63;4788924;29;20027;-79
2023/08/04 08:54:18;;;;;;;1.92;1.10;;;;;;;23.31;65.47;91848.13;4789318;30;20054;-79
2023/08/04 08:56:45;;;;;;;1.35;0.90;;;;;;;22.80;62.92;91843.81;4788462;29;20043;-79
2023/08/04 08:59:10;;;;;;;3.25;1.00;;;;;;;22.52;60.17;91853.28;4789051;29;20031;-79
2023/08/04 09:01:36;;;;;;;1.88;1.00;;;;;;;21.89;59.68;91859.78;4789378;30;20103;-79
2023/08/04 09:04:03;;;;;;;3.47;1.00;;;;;;;21.87;63.53;91848.75;4790295;29;20069;-79
2023/08/04 09:06:29;;;;;;;1.83;1.10;;;;;;;21.96;66.46;91846.50;4791335;29;20035;-79
2023/08/04 09:08:55;;;;;;;1.23;0.90;;;;;;;22.08;65.52;91842.75;4791069;30;20138;-79
2023/08/04 09:11:20;;;;;;;3.63;1.08;;;;;;;22.24;62.98;91849.34;4787959;29;20035;-78
2023/08/04 09:13:46;;;;;;;2.78;1.02;;;;;;;22.33;61.62;91837.56;4790437;29;20039;-78
2023/08/04 09:16:12;;;;;;;1.98;1.13;;;;;;;22.48;63.71;91841.06;4789690;29;20072;-79
2023/08/04 09:18:39;;;;;;;2.13;0.88;;;;;;;22.71;62.88;91838.09;4790032;30;20047;-78
2023/08/04 09:21:08;;;;;;;2.38;1.13;;;;;;;22.54;57.21;91840.34;4790324;29;20501;-79
2023/08/04 09:23:47;;;;;;;1.63;1.05;;;;;;;22.56;60.58;91835.38;4788907;30;20112;-79
2023/08/04 09:26:13;;;;;;;1.30;0.80;;;;;;;22.51;59.80;91848.31;4788365;30;20043;-80
2023/08/04 09:28:39;;;;;;;2.13;1.10;;;;;;;22.61;58.77;91848.34;4787794;29;20051;-79
2023/08/04 09:31:06;;;;;;;1.23;0.90;;;;;;;22.82;60.36;91852.97;4813589;29;20051;-79
2023/08/04 09:33:33;;;;;;;1.60;0.95;;;;;;;22.89;60.36;91852.22;4782782;29;20074;-79
2023/08/04 09:36:06;;;;;;;2.00;0.98;;;;;;;23.07;61.50;91857.63;4773191;30;20035;-78
2023/08/04 09:38:32;;;;;;;2.22;1.00;;;;;;;23.51;63.08;91858.44;4773265;30;20131;-78
2023/08/04 09:41:12;;;;;;;2.80;1.50;;;;;;;23.15;74.75;91874.44;4793969;29;20038;-78
2023/08/04 09:43:45;;;;;;;1.85;1.02;;;;;;;22.90;65.12;91903.69;4789910;29;20055;-78
2023/08/04 09:46:11;;;;;;;2.65;1.35;;;;;;;22.66;75.22;91893.31;4792282;29;20130;-78
2023/08/04 09:48:37;;;;;;;4.50;1.73;;;;;;;22.37;82.76;91875.69;4795168;29;20112;-78
2023/08/04 09:51:10;;;;;;;3.78;1.30;;;;;;;22.19;79.42;91875.56;4786598;29;20039;-79
2023/08/04 09:53:56;;;;;;;2.97;1.63;;;;;;;22.00;86.45;91868.63;4786765;30;20570;-79
2023/08/04 09:56:28;;;;;;;2.88;1.30;;;;;;;22.48;76.86;91854.41;4786186;29;20112;-79
2023/08/04 09:58:56;;;;;;;2.92;1.50;;;;;;;22.60;72.16;91864.72;4786394;30;20046;-79
2023/08/04 10:01:21;;;;;;;2.13;1.10;;;;;;;22.50;68.58;91841.47;4787741;30;20054;-79
2023/08/04 10:03:53;;;;;;;2.90;1.45;;;;;;;22.07;78.26;91847.34;4798441;29;20040;-79
2023/08/04 10:06:20;;;;;;;2.83;1.50;;;;;;;22.37;80.41;91854.34;4789575;29;20051;-79
2023/08/04 10:08:48;;;;;;;2.22;1.30;;;;;;;22.45;74.20;91861.25;4789237;30;20039;-79
2023/08/04 10:11:13;;;;;;;4.43;1.40;;;;;;;22.39;78.78;91870.75;4788843;30;20147;-80
2023/08/04 10:13:42;;;;;;;4.20;1.40;;;;;;;22.29;74.68;91866.91;4788665;30;20123;-79
2023/08/04 10:16:11;;;;;;;4.28;1.50;;;;;;;22.16;77.65;91855.75;4787417;29;20082;-79
2023/08/04 10:18:53;;;;;;;3.38;1.35;;;;;;;21.82;76.14;91869.25;4788229;30;20051;-79
2023/08/04 10:21:39;;;;;;;6.93;1.40;;;;;;;21.50;81.53;91862.94;4784559;30;20042;-78
2023/08/04 10:24:06;;;;;;;3.38;1.50;;;;;;;21.59;79.75;91868.69;4787869;30;20035;-79
2023/08/04 10:26:44;;;;;;;1.85;1.08;;;;;;;21.46;73.57;91867.47;4791458;29;20042;-79
2023/08/04 10:29:10;;;;;;;3.10;1.30;;;;;;;21.59;69.01;91869.50;4788810;30;20035;-79
2023/08/04 10:31:42;;;;;;;3.75;1.35;;;;;;;21.46;77.53;91878.91;4792010;29;20047;-80
2023/08/04 10:34:28;;;;;;;3.65;1.40;;;;;;;21.45;76.92;91873.94;4798800;29;20119;-82
2023/08/04 10:36:55;;;;;;;2.60;1.27;;;;;;;21.48;72.24;91865.19;4785104;29;20102;-80
2023/08/04 10:39:36;;;;;;;2.40;1.40;;;;;;;21.70;76.42;91866.88;4776120;30;20047;-81
2023/08/04 10:42:12;;;;;;;2.03;1.20;;;;;;;21.71;74.89;91871.09;4784311;30;20517;-80
2023/08/04 10:44:52;;;;;;;3.17;1.45;;;;;;;21.78;79.68;91881.03;4784691;30;20027;-80
2023/08/04 10:47:45;;;;;;;2.55;1.30;;;;;;;21.69;83.70;91861.94;4789516;29;20132;-80
2023/08/04 10:50:12;;;;;;;4.47;1.52;;;;;;;21.62;82.08;91867.97;4788214;29;20111;-81
2023/08/04 10:52:39;;;;;;;3.15;1.60;;;;;;;21.66;88.49;91855.47;4788558;30;20039;-80
2023/08/04 10:55:07;;;;;;;2.47;1.30;;;;;;;21.57;88.71;91860.31;4788402;30;20035;-80
2023/08/04 10:57:34;;;;;;;3.90;2.00;;;;;;;21.56;88.13;91870.22;4785286;29;20039;-80
2023/08/04 11:00:01;;;;;;;4.32;2.00;;;;;;;21.61;79.80;91874.44;4769821;30;20642;-81
2023/08/04 11:02:27;;;;;;;4.10;1.52;;;;;;;21.68;83.69;91869.16;4786702;29;20050;-81
2023/08/04 11:04:53;;;;;;;3.47;1.67;;;;;;;21.54;80.68;91858.41;4787140;29;20067;-81
2023/08/04 11:07:21;;;;;;;3.83;1.80;;;;;;;21.71;85.47;91846.38;4786218;30;20043;-81
2023/08/04 11:09:48;;;;;;;3.90;1.80;;;;;;;21.65;90.30;91837.94;4785393;30;20035;-81
2023/08/04 11:12:14;;;;;;;3.05;1.70;;;;;;;21.55;86.49;91828.00;4784760;29;20063;-81
2023/08/04 11:14:40;;;;;;;3.53;1.80;;;;;;;21.86;87.41;91834.63;4784019;30;20039;-81
2023/08/04 11:17:17;;;;;;;3.92;1.73;;;;;;;22.02;83.69;91832.47;4786562;29;20473;-82
2023/08/04 11:19:48;;;;;;;3.92;1.95;;;;;;;22.22;88.16;91840.97;4786102;30;20475;-81
2023/08/04 11:22:21;;;;;;;4.13;1.90;;;;;;;22.54;79.34;91856.34;4786888;30;20581;-81
2023/08/04 11:24:49;;;;;;;3.75;2.00;;;;;;;22.32;82.64;91852.81;4783114;30;20059;-81
2023/08/04 11:27:16;;;;;;;3.97;1.85;;;;;;;21.95;81.54;91864.41;4788291;29;20035;-79